Terminal Aerodrome Forecast
Issued by NWS Charleston, SC

Home | Current Version | Previous Version | Text Only | Print | Product List | Glossary On
Versions: 1 2 3 4 5 6 7 8 9 10 11 12 13 14 15 16 17 18 19 20 21 22 23 24 25 26 27 28 29 30 31 32 33 34 35 36
529
FTUS42 KCHS 011532 AAC
TAFCHS
TAF AMD
KCHS 011532Z 0116/0212 18012G17KT P6SM VCTS SCT020CB BKN025
     FM011700 17012G18KT P6SM SCT035 BKN040
     FM020300 19005KT P6SM SCT040
     FM020500 20004KT P6SM SCT025=

USA.gov is the U.S. government's official web portal to all federal, state and local government web resources and services.